createdAt,value
2023-02-14T00:03:46.289Z,100
2023-02-14T00:08:47.328Z,100
2023-02-14T00:13:54.758Z,100
2023-02-14T00:19:04.279Z,100
2023-02-14T00:23:44.560Z,100
2023-02-14T00:28:46.949Z,100
2023-02-14T00:33:44.645Z,100
2023-02-14T00:38:44.759Z,100
2023-02-14T00:43:44.645Z,100
2023-02-14T00:48:47.246Z,100
2023-02-14T00:53:47.449Z,100
2023-02-14T00:58:49.712Z,100
2023-02-14T01:03:44.654Z,100
2023-02-14T01:08:44.845Z,100
2023-02-14T01:13:46.199Z,100
2023-02-14T01:18:44.817Z,100
2023-02-14T01:23:47.256Z,100
2023-02-14T01:29:14.876Z,100
2023-02-14T01:33:47.282Z,100
2023-02-14T01:38:50.104Z,100
2023-02-14T01:44:00.224Z,100
2023-02-14T01:48:52.127Z,100
2023-02-14T01:53:47.160Z,100
2023-02-14T01:58:49.229Z,100
2023-02-14T02:03:46.948Z,100
2023-02-14T02:08:47.156Z,100
2023-02-14T02:13:44.714Z,100
2023-02-14T02:18:23.201Z,100
2023-02-14T02:23:31.530Z,100
2023-02-14T02:28:32.223Z,100
2023-02-14T02:33:25.961Z,100
2023-02-14T02:38:21.441Z,100
2023-02-14T02:43:21.225Z,100
2023-02-14T02:48:28.384Z,100
2023-02-14T02:53:19.049Z,100
2023-02-14T02:58:17.498Z,100
2023-02-14T03:03:31.660Z,100
2023-02-14T03:08:17.320Z,100
2023-02-14T03:13:25.586Z,100
2023-02-14T03:18:34.884Z,100
2023-02-14T03:23:26.954Z,100
2023-02-14T03:28:18.186Z,100
2023-02-14T03:33:20.593Z,100
2023-02-14T03:38:20.853Z,100
2023-02-14T03:43:16.411Z,100
2023-02-14T03:48:19.651Z,100
2023-02-14T03:53:19.173Z,100
2023-02-14T03:58:17.693Z,100
2023-02-14T04:03:19.289Z,100
2023-02-14T04:08:17.420Z,100
2023-02-14T04:13:16.201Z,100
2023-02-14T04:18:29.060Z,100
2023-02-14T04:23:14.970Z,100
2023-02-14T04:28:23.335Z,100
2023-02-14T04:33:20.903Z,100
2023-02-14T04:38:18.019Z,100
2023-02-14T04:43:14.870Z,100
2023-02-14T04:48:16.050Z,100
2023-02-14T04:53:14.814Z,100
2023-02-14T04:58:14.691Z,100
2023-02-14T05:03:16.101Z,100
2023-02-14T05:08:14.684Z,100
2023-02-14T05:13:14.739Z,100
2023-02-14T05:18:14.765Z,100
2023-02-14T05:23:14.583Z,100
2023-02-14T05:28:16.039Z,100
2023-02-14T05:33:14.732Z,100
2023-02-14T05:38:16.714Z,100
2023-02-14T05:43:19.180Z,100
2023-02-14T05:48:18.482Z,100
2023-02-14T05:53:14.673Z,100
2023-02-14T05:58:15.177Z,100
2023-02-14T06:03:14.763Z,100
2023-02-14T06:08:19.922Z,100
2023-02-14T06:13:14.579Z,100
2023-02-14T06:18:15.553Z,100
2023-02-14T06:23:14.726Z,100
2023-02-14T06:28:14.673Z,100
2023-02-14T06:33:14.776Z,100
2023-02-14T06:38:16.111Z,100
2023-02-14T06:43:14.723Z,100
2023-02-14T06:48:14.789Z,100
2023-02-14T06:53:14.637Z,100
2023-02-14T06:58:14.842Z,100
2023-02-14T07:03:19.104Z,100
2023-02-14T07:08:14.753Z,100
2023-02-14T07:13:14.638Z,100
2023-02-14T07:18:14.629Z,100
2023-02-14T07:23:15.176Z,100
2023-02-14T07:28:14.629Z,100
2023-02-14T07:33:14.611Z,100
2023-02-14T07:38:14.650Z,100
2023-02-14T07:43:14.730Z,100
2023-02-14T07:48:14.481Z,100
2023-02-14T07:53:14.901Z,100
2023-02-14T07:58:14.728Z,100
2023-02-14T08:03:14.659Z,100
2023-02-14T08:08:14.637Z,100
2023-02-14T08:13:14.579Z,100
2023-02-14T08:18:14.530Z,100
2023-02-14T08:23:14.844Z,100
2023-02-14T08:28:15.768Z,100
2023-02-14T08:33:14.749Z,100
2023-02-14T08:38:19.167Z,100
2023-02-14T08:43:18.080Z,100
2023-02-14T08:48:15.578Z,99.50977
2023-02-14T08:53:20.254Z,99.17578
2023-02-14T08:58:15.157Z,98.00195
2023-02-14T09:03:14.548Z,97.87891
2023-02-14T09:08:17.366Z,96.86719
2023-02-14T09:13:16.363Z,96.59668
2023-02-14T09:18:14.877Z,96.0127
2023-02-14T09:23:23.314Z,96.79297
2023-02-14T09:28:14.627Z,95.86621
2023-02-14T09:33:14.553Z,95.15332
2023-02-14T09:38:14.714Z,93.8418
2023-02-14T09:43:22.722Z,93.93262
2023-02-14T09:48:18.500Z,92.21973
2023-02-14T09:53:21.018Z,91.70996
2023-02-14T09:58:19.000Z,91.10547
2023-02-14T10:03:22.445Z,89.90918
2023-02-14T10:08:22.268Z,89.4707
2023-02-14T10:13:19.934Z,88.18457
2023-02-14T10:18:18.157Z,87.52539
2023-02-14T10:23:21.973Z,85.90332
2023-02-14T10:28:17.913Z,85.39355
2023-02-14T10:33:22.460Z,85.61523
2023-02-14T10:38:19.662Z,84.97559
2023-02-14T10:43:19.794Z,84.80664
2023-02-14T10:48:19.222Z,84.99219
2023-02-14T10:53:22.596Z,84.37109
2023-02-14T10:58:16.275Z,83.7832
2023-02-14T11:03:16.819Z,83.18359
2023-02-14T11:08:24.674Z,83.63672
2023-02-14T11:13:28.626Z,82.72656
2023-02-14T11:18:21.335Z,82.4248
2023-02-14T11:23:27.496Z,82.70801
2023-02-14T11:28:19.205Z,82.80273
2023-02-14T11:33:16.187Z,82.24609
2023-02-14T11:38:27.623Z,81.67578
2023-02-14T11:43:28.576Z,82.32715
2023-02-14T11:48:36.745Z,81.88574
2023-02-14T11:53:15.424Z,81.78711
2023-02-14T11:58:24.479Z,81.54785
2023-02-14T12:03:22.247Z,81.47461
2023-02-14T12:08:15.115Z,80.76465
2023-02-14T12:13:27.358Z,81.01465
2023-02-14T12:18:24.933Z,81.02539
2023-02-14T12:25:09.232Z,80.55664
2023-02-14T12:30:07.445Z,80.84961
2023-02-14T12:35:05.983Z,82.23926
2023-02-14T12:40:21.005Z,82.29492
2023-02-14T12:45:08.671Z,81.00488
2023-02-14T12:50:16.401Z,81.67871
2023-02-14T12:55:11.851Z,80.89941
2023-02-14T13:00:07.074Z,80.65332
2023-02-14T13:05:05.567Z,80.59082
2023-02-14T13:10:07.331Z,80.18848
2023-02-14T13:15:08.582Z,80.75293
2023-02-14T13:20:07.218Z,80.41406
2023-02-14T13:25:06.938Z,80.70508
2023-02-14T13:30:06.151Z,81
2023-02-14T13:35:06.316Z,80.49121
2023-02-14T13:40:06.044Z,80.72461
2023-02-14T13:45:03.885Z,80.66309
2023-02-14T13:50:05.834Z,80.5293
2023-02-14T13:55:11.363Z,80.77246
2023-02-14T14:00:15.074Z,80.62012
2023-02-14T14:05:03.856Z,80.29004
2023-02-14T14:10:07.715Z,80.37305
2023-02-14T14:15:16.805Z,80.24023
2023-02-14T14:20:04.800Z,80.30371
2023-02-14T14:25:11.117Z,80.8623
2023-02-14T14:30:07.517Z,81.06836
2023-02-14T14:35:04.832Z,80.82129
2023-02-14T14:40:04.776Z,80.59277
2023-02-14T14:45:05.523Z,80.57031
2023-02-14T14:50:09.925Z,80.75488
2023-02-14T14:55:05.740Z,81.69531
2023-02-14T15:00:21.168Z,81.71094
2023-02-14T15:05:13.846Z,81.71094
2023-02-14T15:10:04.388Z,83.4248
2023-02-14T15:15:04.077Z,83.00586
2023-02-14T15:20:05.586Z,82.66797
2023-02-14T15:25:04.181Z,82.49512
2023-02-14T15:30:05.284Z,82.98047
2023-02-14T15:35:05.446Z,82.80957
2023-02-14T15:40:06.750Z,82.16406
2023-02-14T15:45:15.477Z,81.92188
2023-02-14T15:50:04.669Z,82.16211
2023-02-14T15:55:03.778Z,82.15527
2023-02-14T16:00:11.527Z,82.64551
2023-02-14T16:05:11.058Z,83.4541
2023-02-14T16:10:15.474Z,85.0791
2023-02-14T16:15:14.403Z,87.11816
2023-02-14T16:20:03.943Z,89.24023
2023-02-14T16:25:04.816Z,91.52734
2023-02-14T16:30:03.776Z,92.97266
2023-02-14T16:35:04.058Z,95.16113
2023-02-14T16:40:04.383Z,95.48438
2023-02-14T16:45:03.994Z,96.26855
2023-02-14T16:50:03.901Z,96.90039
2023-02-14T16:55:04.635Z,98.45996
2023-02-14T17:00:05.253Z,99.37988
2023-02-14T17:05:03.987Z,100
2023-02-14T17:10:13.348Z,100
2023-02-14T17:15:07.375Z,100
2023-02-14T17:20:14.875Z,100
2023-02-14T17:25:04.933Z,100
2023-02-14T17:30:08.505Z,100
2023-02-14T17:35:05.823Z,100
2023-02-14T17:40:03.856Z,100
2023-02-14T17:45:05.912Z,100
2023-02-14T17:50:04.113Z,100
2023-02-14T17:55:03.983Z,100
2023-02-14T18:00:06.515Z,100
2023-02-14T18:05:07.384Z,100
2023-02-14T18:10:03.886Z,100
2023-02-14T18:15:06.615Z,100
2023-02-14T18:20:05.149Z,100
2023-02-14T18:25:03.838Z,98.58594
2023-02-14T18:30:04.270Z,98.65527
2023-02-14T18:35:04.208Z,98.625
2023-02-14T18:40:04.163Z,98.96875
2023-02-14T18:45:03.867Z,99.44434
2023-02-14T18:50:14.628Z,99.08887
2023-02-14T18:55:04.323Z,98.44727
2023-02-14T19:00:12.373Z,98.49121
2023-02-14T19:05:04.078Z,99.00879
2023-02-14T19:10:03.854Z,98.625
2023-02-14T19:15:05.770Z,99.41602
2023-02-14T19:20:08.439Z,98.74707
2023-02-14T19:25:03.785Z,98.55664
2023-02-14T19:30:03.876Z,99.21191
2023-02-14T19:35:03.840Z,98.89258
2023-02-14T19:40:05.029Z,98.9375
2023-02-14T19:45:03.714Z,99.23633
2023-02-14T19:50:03.681Z,98.98242
2023-02-14T19:55:03.823Z,99.00195
2023-02-14T20:00:15.842Z,98.82324
2023-02-14T20:05:04.088Z,98.96875
2023-02-14T20:10:04.360Z,99.29297
2023-02-14T20:15:05.173Z,98.95508
2023-02-14T20:20:04.043Z,99.03418
2023-02-14T20:25:03.803Z,99.24121
2023-02-14T20:30:03.929Z,99.21777
2023-02-14T20:35:08.689Z,98.97559
2023-02-14T20:40:03.979Z,98.87305
2023-02-14T20:45:03.719Z,99.0752
2023-02-14T20:50:03.717Z,99.69727
2023-02-14T20:55:04.438Z,99.89063
2023-02-14T21:00:04.357Z,99.11328
2023-02-14T21:05:03.940Z,99.07324
2023-02-14T21:10:06.392Z,99.75098
2023-02-14T21:15:04.026Z,99.66504
2023-02-14T21:20:03.877Z,99.375
2023-02-14T21:25:04.075Z,99.93652
2023-02-14T21:30:04.038Z,99.21387
2023-02-14T21:35:05.326Z,99.65625
2023-02-14T21:40:03.915Z,99.47852
2023-02-14T21:45:26.938Z,99.17383
2023-02-14T21:50:15.088Z,99.66602
2023-02-14T21:55:05.807Z,99.35449
2023-02-14T22:00:04.250Z,99.24219
2023-02-14T22:05:07.401Z,99.33398
2023-02-14T22:10:04.122Z,99.50098
2023-02-14T22:15:04.029Z,99.43555
2023-02-14T22:20:05.770Z,99.74316
2023-02-14T22:25:05.963Z,99.15625
2023-02-14T22:30:03.729Z,99.24707
2023-02-14T22:35:03.920Z,99.44824
2023-02-14T22:40:06.898Z,99.47168
2023-02-14T22:45:07.404Z,99.09277
2023-02-14T22:50:03.634Z,99.10352
2023-02-14T22:55:05.916Z,99.56641
2023-02-14T23:00:03.878Z,99.50391
2023-02-14T23:05:11.171Z,99.53418
2023-02-14T23:10:04.918Z,99.33008
2023-02-14T23:15:15.205Z,98.96973
2023-02-14T23:20:15.290Z,99.26367
2023-02-14T23:25:07.854Z,98.85156
2023-02-14T23:30:04.015Z,98.80469
2023-02-14T23:35:04.231Z,99.14551
2023-02-14T23:40:03.821Z,98.90039
2023-02-14T23:45:25.539Z,99.125
2023-02-14T23:50:03.905Z,99.20996
2023-02-14T23:55:04.025Z,98.94043
